Terminal Aerodrome Forecast
Issued by NWS

Home | Current Version | Previous Version | Text Only | Print | Product List | Glossary On
Versions: 1 2 3 4 5 6 7 8 9 10 11 12 13 14 15 16 17 18 19 20 21 22 23 24 25 26 27 28
472
FTUS44 KLIX 141133
TAFHUM
TAF
KHUM 141133Z 1412/1512 09003KT P6SM SCT250
     FM141600 14008KT P6SM FEW250
     FM150000 14007KT P6SM OVC070
     FM150400 12006KT P6SM BKN030
     FM150800 13006KT P6SM BKN015 PROB30 1510/1512 SHRA=

USA.gov is the U.S. government's official web portal to all federal, state and local government web resources and services.